createdAt,value
2018-09-18T00:02:23.709Z,66.78
2018-09-18T00:04:52.523Z,67.09
2018-09-18T00:07:21.391Z,67.26
2018-09-18T00:09:50.170Z,67.52
2018-09-18T00:12:18.959Z,67.42
2018-09-18T00:14:47.854Z,67.12
2018-09-18T00:17:16.684Z,67.13
2018-09-18T00:19:45.487Z,67.23
2018-09-18T00:22:14.329Z,67.58
2018-09-18T00:24:43.125Z,67.44
2018-09-18T00:27:11.925Z,67.67
2018-09-18T00:29:40.770Z,67.69
2018-09-18T00:32:09.566Z,67.58
2018-09-18T00:34:38.370Z,68.27
2018-09-18T00:37:07.187Z,68.55
2018-09-18T00:39:35.974Z,69.08
2018-09-18T00:42:04.818Z,69.62
2018-09-18T00:44:33.647Z,69.44
2018-09-18T00:47:02.448Z,69.25
2018-09-18T00:49:31.262Z,69.73
2018-09-18T00:52:00.126Z,70.08
2018-09-18T00:54:28.911Z,70.47
2018-09-18T00:56:57.733Z,70.13
2018-09-18T00:59:26.783Z,69.77
2018-09-18T01:01:55.574Z,69.46
2018-09-18T01:04:24.369Z,69.24
2018-09-18T01:06:53.213Z,69.05
2018-09-18T01:09:22.013Z,68.66
2018-09-18T01:11:50.806Z,68.58
2018-09-18T01:14:19.795Z,68.58
2018-09-18T01:16:48.615Z,68.87
2018-09-18T01:19:17.441Z,67.97
2018-09-18T01:21:46.266Z,69.20
2018-09-18T01:24:15.084Z,70.13
2018-09-18T01:26:43.889Z,70.51
2018-09-18T01:29:12.707Z,69.64
2018-09-18T01:31:41.497Z,70.11
2018-09-18T01:34:10.327Z,70.46
2018-09-18T01:36:39.129Z,70.98
2018-09-18T01:39:09.384Z,71.33
2018-09-18T01:41:38.271Z,71.76
2018-09-18T01:44:07.092Z,71.14
2018-09-18T01:46:35.921Z,70.71
2018-09-18T01:49:04.857Z,70.97
2018-09-18T01:51:33.701Z,71.33
2018-09-18T01:54:02.494Z,71.14
2018-09-18T01:56:31.714Z,70.85
2018-09-18T01:59:00.559Z,70.87
2018-09-18T02:01:29.387Z,70.22
2018-09-18T02:03:58.210Z,69.56
2018-09-18T02:06:27.065Z,69.68
2018-09-18T02:08:55.894Z,69.94
2018-09-18T02:11:24.708Z,69.43
2018-09-18T02:13:53.626Z,69.36
2018-09-18T02:16:22.422Z,69.07
2018-09-18T02:18:51.224Z,68.70
2018-09-18T02:21:20.074Z,68.48
2018-09-18T02:23:48.887Z,68.93
2018-09-18T02:26:17.698Z,68.45
2018-09-18T02:28:46.516Z,68.67
2018-09-18T02:31:15.314Z,69.45
2018-09-18T02:33:44.094Z,68.75
2018-09-18T02:36:14.194Z,69.60
2018-09-18T02:38:43.064Z,69.46
2018-09-18T02:41:11.950Z,69.32
2018-09-18T02:43:40.990Z,69.09
2018-09-18T02:46:10.094Z,68.84
2018-09-18T02:48:38.932Z,68.50
2018-09-18T02:51:07.855Z,69.27
2018-09-18T02:53:36.662Z,69.03
2018-09-18T02:56:05.522Z,69.27
2018-09-18T02:58:34.309Z,69.32
2018-09-18T03:01:03.143Z,69.62
2018-09-18T03:03:32.053Z,69.41
2018-09-18T03:06:00.875Z,68.95
2018-09-18T03:08:32.595Z,69.32
2018-09-18T03:11:05.453Z,68.26
2018-09-18T03:13:34.745Z,68.23
2018-09-18T03:16:04.398Z,68.40
2018-09-18T03:18:36.868Z,68.33
2018-09-18T03:21:07.298Z,68.62
2018-09-18T03:23:36.615Z,68.90
2018-09-18T03:26:07.473Z,69.40
2018-09-18T03:28:40.133Z,68.86
2018-09-18T03:31:09.358Z,70.03
2018-09-18T03:33:39.488Z,71.01
2018-09-18T03:36:09.528Z,71.24
2018-09-18T03:38:40.201Z,71.40
2018-09-18T03:41:11.663Z,72.55
2018-09-18T03:43:44.552Z,73.37
2018-09-18T03:46:15.686Z,73.10
2018-09-18T03:48:45.216Z,74.01
2018-09-18T03:51:16.113Z,74.12
2018-09-18T03:53:46.315Z,74.59
2018-09-18T03:56:16.464Z,74.69
2018-09-18T03:58:46.574Z,74.91
2018-09-18T04:01:17.822Z,74.41
2018-09-18T04:03:48.118Z,75.34
2018-09-18T04:06:17.547Z,75.52
2018-09-18T04:08:47.341Z,75.94
2018-09-18T04:11:17.273Z,75.74
2018-09-18T04:13:47.738Z,75.19
2018-09-18T04:16:17.029Z,76.07
2018-09-18T04:18:46.441Z,75.71
2018-09-18T04:21:17.300Z,75.82
2018-09-18T04:23:48.499Z,74.14
2018-09-18T04:26:20.521Z,74.10
2018-09-18T04:28:50.831Z,74.12
2018-09-18T04:31:20.258Z,74.87
2018-09-18T04:33:56.447Z,75.49
2018-09-18T04:36:28.604Z,74.92
2018-09-18T04:38:58.038Z,75.36
2018-09-18T04:41:27.773Z,76.07
2018-09-18T04:43:57.175Z,75.58
2018-09-18T04:46:26.536Z,74.48
2018-09-18T04:48:56.411Z,74.53
2018-09-18T04:51:27.012Z,74.01
2018-09-18T04:53:57.282Z,72.66
2018-09-18T04:56:27.649Z,73.04
2018-09-18T04:58:57.000Z,72.15
2018-09-18T05:01:27.245Z,71.43
2018-09-18T05:03:56.672Z,71.09
2018-09-18T05:06:26.169Z,70.02
2018-09-18T05:08:57.045Z,70.01
2018-09-18T05:11:26.759Z,69.51
2018-09-18T05:13:56.184Z,69.25
2018-09-18T05:16:27.059Z,69.01
2018-09-18T05:18:58.746Z,68.15
2018-09-18T05:21:29.254Z,68.13
2018-09-18T05:23:59.345Z,67.50
2018-09-18T05:26:30.130Z,67.23
2018-09-18T05:28:59.637Z,67.31
2018-09-18T05:31:31.711Z,66.64
2018-09-18T05:34:02.025Z,67.09
2018-09-18T05:36:31.372Z,67.12
2018-09-18T05:39:02.246Z,65.96
2018-09-18T05:41:34.165Z,65.43
2018-09-18T05:44:04.150Z,65.25
2018-09-18T05:46:33.453Z,64.46
2018-09-18T05:49:02.908Z,64.09
2018-09-18T05:51:35.260Z,63.59
2018-09-18T05:54:05.473Z,63.65
2018-09-18T05:56:35.396Z,62.76
2018-09-18T05:59:05.321Z,62.57
2018-09-18T06:01:34.666Z,62.25
2018-09-18T06:04:04.026Z,61.57
2018-09-18T06:06:34.103Z,60.61
2018-09-18T06:09:04.741Z,60.83
2018-09-18T06:11:34.112Z,60.77
2018-09-18T06:14:03.469Z,60.03
2018-09-18T06:16:32.932Z,59.73
2018-09-18T06:19:02.283Z,59.59
2018-09-18T06:21:31.745Z,58.87
2018-09-18T06:24:01.213Z,59.70
2018-09-18T06:26:31.313Z,59.99
2018-09-18T06:29:00.668Z,59.97
2018-09-18T06:31:29.861Z,59.00
2018-09-18T06:34:02.236Z,58.30
2018-09-18T06:36:33.935Z,55.40
2018-09-18T06:39:04.508Z,55.45
2018-09-18T06:41:33.818Z,55.19
2018-09-18T06:44:03.430Z,53.61
2018-09-18T06:46:32.829Z,54.11
2018-09-18T06:49:02.253Z,54.01
2018-09-18T06:51:31.603Z,52.33
2018-09-18T06:54:01.649Z,51.10
2018-09-18T06:56:31.110Z,50.74
2018-09-18T06:59:01.596Z,49.40
2018-09-18T07:01:33.099Z,49.81
2018-09-18T07:04:02.868Z,49.51
2018-09-18T07:06:34.125Z,50.12
2018-09-18T07:09:04.665Z,49.75
2018-09-18T07:11:34.060Z,50.28
2018-09-18T07:14:03.640Z,51.52
2018-09-18T07:16:34.356Z,50.49
2018-09-18T07:19:04.553Z,49.04
2018-09-18T07:21:33.779Z,49.03
2018-09-18T07:24:03.390Z,50.09
2018-09-18T07:26:35.974Z,51.12
2018-09-18T07:29:06.899Z,51.06
2018-09-18T07:31:38.888Z,51.45
2018-09-18T07:34:11.176Z,50.77
2018-09-18T07:36:40.432Z,49.40
2018-09-18T07:39:13.539Z,49.36
2018-09-18T07:41:42.913Z,48.72
2018-09-18T07:44:18.904Z,47.94
2018-09-18T07:46:48.269Z,46.76
2018-09-18T07:49:18.046Z,46.71
2018-09-18T07:51:47.446Z,48.77
2018-09-18T07:54:18.870Z,47.64
2018-09-18T07:56:48.806Z,48.71
2018-09-18T07:59:18.133Z,47.78
2018-09-18T08:01:48.304Z,48.91
2018-09-18T08:04:18.639Z,48.71
2018-09-18T08:06:48.314Z,48.43
2018-09-18T08:09:18.515Z,47.17
2018-09-18T08:11:54.302Z,47.11
2018-09-18T08:14:25.605Z,47.53
2018-09-18T08:16:55.899Z,46.13
2018-09-18T08:19:26.015Z,45.87
2018-09-18T08:21:56.915Z,45.06
2018-09-18T08:24:27.967Z,44.83
2018-09-18T08:26:57.389Z,44.64
2018-09-18T08:29:28.461Z,44.06
2018-09-18T08:31:57.908Z,43.81
2018-09-18T08:34:28.680Z,44.07
2018-09-18T08:36:59.188Z,44.05
2018-09-18T08:39:28.509Z,44.25
2018-09-18T08:41:58.991Z,43.94
2018-09-18T08:44:28.547Z,44.12
2018-09-18T08:47:04.898Z,43.89
2018-09-18T08:49:34.718Z,44.38
2018-09-18T08:52:04.235Z,44.24
2018-09-18T08:54:34.567Z,42.42
2018-09-18T08:57:05.311Z,42.36
2018-09-18T08:59:36.104Z,42.13
2018-09-18T09:02:06.202Z,43.08
2018-09-18T09:04:35.482Z,43.95
2018-09-18T09:07:06.349Z,45.42
2018-09-18T09:09:35.722Z,45.70
2018-09-18T09:12:05.020Z,46.14
2018-09-18T09:14:35.182Z,46.31
2018-09-18T09:17:04.707Z,46.60
2018-09-18T09:19:36.385Z,47.00
2018-09-18T09:22:05.838Z,44.91
2018-09-18T09:24:35.190Z,44.56
2018-09-18T09:27:04.577Z,45.36
2018-09-18T09:29:34.280Z,46.04
2018-09-18T09:32:03.812Z,46.48
2018-09-18T09:34:34.527Z,46.38
2018-09-18T09:37:06.937Z,46.69
2018-09-18T09:39:36.634Z,46.00
2018-09-18T09:42:07.094Z,46.43
2018-09-18T09:44:36.447Z,46.37
2018-09-18T09:47:05.986Z,46.60
2018-09-18T09:49:36.267Z,46.27
2018-09-18T09:52:05.547Z,46.90
2018-09-18T09:54:34.942Z,48.05
2018-09-18T09:57:04.992Z,49.03
2018-09-18T09:59:35.151Z,49.28
2018-09-18T10:02:09.514Z,48.88
2018-09-18T10:04:38.970Z,48.20
2018-09-18T10:07:08.622Z,47.40
2018-09-18T10:09:38.560Z,47.47
2018-09-18T10:12:08.177Z,47.83
2018-09-18T10:14:37.884Z,47.38
2018-09-18T10:17:07.460Z,47.18
2018-09-18T10:19:38.088Z,46.53
2018-09-18T10:22:09.165Z,45.38
2018-09-18T10:24:38.871Z,44.36
2018-09-18T10:27:09.777Z,44.47
2018-09-18T10:29:39.032Z,45.22
2018-09-18T10:32:11.098Z,44.64
2018-09-18T10:34:40.780Z,44.54
2018-09-18T10:37:10.150Z,44.85
2018-09-18T10:39:40.284Z,44.86
2018-09-18T10:42:11.360Z,44.00
2018-09-18T10:44:40.918Z,44.15
2018-09-18T10:47:10.390Z,43.96
2018-09-18T10:49:39.720Z,43.28
2018-09-18T10:52:10.682Z,43.38
2018-09-18T10:54:41.033Z,43.19
2018-09-18T10:57:13.068Z,44.75
2018-09-18T10:59:42.481Z,44.45
2018-09-18T11:02:12.000Z,44.61
2018-09-18T11:04:41.631Z,43.84
2018-09-18T11:07:11.162Z,43.76
2018-09-18T11:09:44.576Z,43.82
2018-09-18T11:12:14.082Z,44.39
2018-09-18T11:14:43.469Z,44.86
2018-09-18T11:17:14.944Z,43.88
2018-09-18T11:19:44.219Z,44.09
2018-09-18T11:22:13.653Z,44.19
2018-09-18T11:24:42.873Z,44.61
2018-09-18T11:27:13.205Z,44.44
2018-09-18T11:29:43.232Z,44.46
2018-09-18T11:32:13.282Z,45.71
2018-09-18T11:34:42.485Z,45.24
2018-09-18T11:37:13.257Z,44.89
2018-09-18T11:39:42.485Z,45.25
2018-09-18T11:42:11.721Z,44.50
2018-09-18T11:44:41.125Z,44.45
2018-09-18T11:47:12.351Z,45.65
2018-09-18T11:49:44.987Z,45.79
2018-09-18T11:52:14.326Z,45.67
2018-09-18T11:54:43.678Z,45.85
2018-09-18T11:57:13.022Z,45.34
2018-09-18T11:59:42.486Z,45.35
2018-09-18T12:02:12.984Z,45.19
2018-09-18T12:04:47.106Z,44.75
2018-09-18T12:07:16.463Z,45.01
2018-09-18T12:09:47.719Z,45.19
2018-09-18T12:12:17.964Z,45.02
2018-09-18T12:14:47.353Z,45.49
2018-09-18T12:17:18.206Z,44.96
2018-09-18T12:19:47.664Z,44.62
2018-09-18T12:22:17.286Z,43.73
2018-09-18T12:24:46.865Z,44.09
2018-09-18T12:27:16.518Z,43.33
2018-09-18T12:29:47.311Z,43.67
2018-09-18T12:32:16.797Z,44.44
2018-09-18T12:34:47.432Z,44.06
2018-09-18T12:37:16.919Z,43.06
2018-09-18T12:39:46.811Z,43.51
2018-09-18T12:42:18.071Z,43.24
2018-09-18T12:44:48.523Z,42.97
2018-09-18T12:47:18.163Z,42.96
2018-09-18T12:49:48.353Z,42.52
2018-09-18T12:52:17.678Z,42.64
2018-09-18T12:54:49.372Z,42.38
2018-09-18T12:57:19.850Z,43.05
2018-09-18T12:59:49.343Z,42.08
2018-09-18T13:02:19.787Z,41.95
2018-09-18T13:04:49.153Z,40.20
2018-09-18T13:07:19.476Z,38.51
2018-09-18T13:09:48.805Z,38.99
2018-09-18T13:12:21.041Z,37.69
2018-09-18T13:14:51.763Z,37.79
2018-09-18T13:17:21.071Z,37.26
2018-09-18T13:19:51.900Z,37.30
2018-09-18T13:22:21.176Z,38.68
2018-09-18T13:24:51.382Z,37.01
2018-09-18T13:27:20.731Z,37.29
2018-09-18T13:29:51.003Z,37.97
2018-09-18T13:32:20.493Z,37.51
2018-09-18T13:34:50.776Z,37.25
2018-09-18T13:37:21.292Z,36.96
2018-09-18T13:39:50.653Z,36.70
2018-09-18T13:42:20.821Z,37.95
2018-09-18T13:44:52.389Z,38.78
2018-09-18T13:47:22.664Z,38.21
2018-09-18T13:49:52.065Z,37.94
2018-09-18T13:52:21.411Z,36.60
2018-09-18T13:54:58.487Z,37.15
2018-09-18T13:57:29.096Z,38.07
2018-09-18T13:59:58.573Z,37.54
2018-09-18T14:02:28.774Z,35.84
2018-09-18T14:04:58.231Z,36.32
2018-09-18T14:07:29.438Z,35.39
2018-09-18T14:09:58.946Z,36.72
2018-09-18T14:12:29.013Z,36.38
2018-09-18T14:14:59.096Z,35.81
2018-09-18T14:17:29.713Z,35.32
2018-09-18T14:19:58.990Z,36.37
2018-09-18T14:22:28.434Z,35.41
2018-09-18T14:24:57.863Z,35.14
2018-09-18T14:27:28.235Z,35.65
2018-09-18T14:29:57.561Z,36.50
2018-09-18T14:32:27.337Z,36.32
2018-09-18T14:34:56.620Z,37.67
2018-09-18T14:37:25.907Z,36.81
2018-09-18T14:39:57.130Z,37.05
2018-09-18T14:42:26.431Z,36.92
2018-09-18T14:44:56.328Z,36.64
2018-09-18T14:47:26.326Z,35.59
2018-09-18T14:49:57.380Z,36.78
2018-09-18T14:52:29.889Z,36.78
2018-09-18T14:54:59.787Z,35.80
2018-09-18T14:57:30.467Z,36.84
2018-09-18T14:59:59.818Z,36.35
2018-09-18T15:02:29.741Z,36.44
2018-09-18T15:04:59.986Z,36.21
2018-09-18T15:07:29.877Z,35.92
2018-09-18T15:10:00.583Z,35.40
2018-09-18T15:12:29.958Z,36.38
2018-09-18T15:15:00.470Z,37.12
2018-09-18T15:17:30.933Z,37.43
2018-09-18T15:20:00.226Z,38.15
2018-09-18T15:22:30.451Z,37.84
2018-09-18T15:25:00.895Z,37.34
2018-09-18T15:27:30.292Z,36.60
2018-09-18T15:29:59.665Z,36.75
2018-09-18T15:32:30.595Z,38.02
2018-09-18T15:34:59.924Z,38.44
2018-09-18T15:37:30.869Z,38.82
2018-09-18T15:40:00.537Z,38.92
2018-09-18T15:42:30.003Z,38.67
2018-09-18T15:44:59.310Z,39.17
2018-09-18T15:47:30.778Z,40.03
2018-09-18T15:50:01.600Z,39.40
2018-09-18T15:52:30.935Z,40.70
2018-09-18T15:55:00.634Z,41.88
2018-09-18T15:57:30.908Z,42.14
2018-09-18T16:00:01.519Z,41.85
2018-09-18T16:02:30.868Z,42.01
2018-09-18T16:05:00.315Z,43.38
2018-09-18T16:07:29.657Z,44.57
2018-09-18T16:10:00.373Z,45.58
2018-09-18T16:12:29.522Z,45.88
2018-09-18T16:15:00.341Z,46.64
2018-09-18T16:17:30.426Z,46.88
2018-09-18T16:20:01.026Z,47.29
2018-09-18T16:22:33.153Z,47.81
2018-09-18T16:25:02.623Z,47.81
2018-09-18T16:27:31.920Z,47.96
2018-09-18T16:30:03.104Z,48.03
2018-09-18T16:32:33.197Z,48.27
2018-09-18T16:35:03.478Z,48.90
2018-09-18T16:37:33.035Z,48.99
2018-09-18T16:40:02.661Z,48.82
2018-09-18T16:42:32.287Z,49.28
2018-09-18T16:45:03.328Z,49.79
2018-09-18T16:47:34.813Z,49.47
2018-09-18T16:50:05.166Z,49.75
2018-09-18T16:52:34.850Z,49.95
2018-09-18T16:55:07.869Z,49.30
2018-09-18T16:57:37.090Z,50.43
2018-09-18T17:00:06.637Z,50.36
2018-09-18T17:02:36.222Z,50.91
2018-09-18T17:05:06.021Z,50.53
2018-09-18T17:07:36.174Z,50.74
2018-09-18T17:10:06.465Z,50.90
2018-09-18T17:12:36.084Z,51.34
2018-09-18T17:15:05.518Z,50.91
2018-09-18T17:17:35.149Z,51.14
2018-09-18T17:20:05.932Z,51.52
2018-09-18T17:22:36.321Z,51.96
2018-09-18T17:25:05.661Z,51.69
2018-09-18T17:27:35.766Z,52.42
2018-09-18T17:30:05.860Z,52.13
2018-09-18T17:32:35.617Z,52.47
2018-09-18T17:35:05.238Z,53.10
2018-09-18T17:37:35.578Z,53.16
2018-09-18T17:40:05.359Z,53.71
2018-09-18T17:42:34.749Z,53.54
2018-09-18T17:45:05.087Z,54.14
2018-09-18T17:47:35.543Z,54.55
2018-09-18T17:50:06.940Z,54.80
2018-09-18T17:52:37.063Z,55.53
2018-09-18T17:55:08.739Z,55.87
2018-09-18T17:57:39.175Z,55.32
2018-09-18T18:00:08.633Z,55.60
2018-09-18T18:02:45.403Z,55.90
2018-09-18T18:05:15.335Z,56.14
2018-09-18T18:07:44.659Z,56.38
2018-09-18T18:10:18.608Z,57.13
2018-09-18T18:12:48.952Z,57.10
2018-09-18T18:15:19.444Z,57.54
2018-09-18T18:17:53.161Z,57.03
2018-09-18T18:20:24.364Z,57.48
2018-09-18T18:22:54.728Z,57.71
2018-09-18T18:25:26.608Z,58.50
2018-09-18T18:27:56.519Z,58.85
2018-09-18T18:30:26.685Z,58.72
2018-09-18T18:32:56.967Z,59.14
2018-09-18T18:35:26.888Z,59.32
2018-09-18T18:37:57.243Z,59.38
2018-09-18T18:40:26.651Z,59.59
2018-09-18T18:42:57.180Z,58.44
2018-09-18T18:45:26.580Z,58.99
2018-09-18T18:47:55.922Z,59.20
2018-09-18T18:50:27.161Z,59.57
2018-09-18T18:52:57.053Z,59.87
2018-09-18T18:55:34.014Z,59.94
2018-09-18T18:58:04.907Z,59.89
2018-09-18T19:00:34.076Z,60.15
2018-09-18T19:03:04.584Z,60.35
2018-09-18T19:05:33.840Z,60.20
2018-09-18T19:08:03.719Z,60.28
2018-09-18T19:10:34.004Z,60.19
2018-09-18T19:13:04.515Z,59.73
2018-09-18T19:15:34.676Z,60.32
2018-09-18T19:18:04.206Z,60.10
2018-09-18T19:20:34.435Z,60.07
2018-09-18T19:23:04.466Z,60.20
2018-09-18T19:25:33.705Z,60.50
2018-09-18T19:28:05.063Z,60.66
2018-09-18T19:30:36.459Z,60.75
2018-09-18T19:33:06.593Z,60.45
2018-09-18T19:35:36.638Z,60.40
2018-09-18T19:38:09.577Z,60.39
2018-09-18T19:40:38.942Z,59.94
2018-09-18T19:43:08.703Z,60.25
2018-09-18T19:45:39.044Z,59.90
2018-09-18T19:48:10.901Z,60.07
2018-09-18T19:50:41.106Z,60.44
2018-09-18T19:53:10.553Z,60.84
2018-09-18T19:55:41.658Z,60.76
2018-09-18T19:58:11.293Z,60.91
2018-09-18T20:00:40.512Z,61.42
2018-09-18T20:03:11.620Z,61.08
2018-09-18T20:05:41.045Z,61.31
2018-09-18T20:08:11.005Z,62.17
2018-09-18T20:10:43.159Z,61.78
2018-09-18T20:13:12.372Z,61.83
2018-09-18T20:15:43.655Z,61.84
2018-09-18T20:18:13.909Z,61.54
2018-09-18T20:20:43.395Z,62.16
2018-09-18T20:23:14.544Z,61.76
2018-09-18T20:25:43.823Z,61.53
2018-09-18T20:28:14.741Z,61.35
2018-09-18T20:30:43.993Z,61.60
2018-09-18T20:33:13.308Z,62.28
2018-09-18T20:35:45.176Z,61.66
2018-09-18T20:38:14.521Z,62.47
2018-09-18T20:40:43.784Z,62.58
2018-09-18T20:43:13.090Z,62.70
2018-09-18T20:45:44.143Z,62.72
2018-09-18T20:48:14.038Z,62.55
2018-09-18T20:50:43.930Z,62.44
2018-09-18T20:53:15.349Z,62.63
2018-09-18T20:55:44.667Z,63.08
2018-09-18T20:58:14.039Z,63.23
2018-09-18T21:00:43.327Z,64.13
2018-09-18T21:03:13.981Z,63.61
2018-09-18T21:05:43.509Z,63.59
2018-09-18T21:08:13.563Z,63.41
2018-09-18T21:10:43.392Z,64.18
2018-09-18T21:13:13.988Z,63.89
2018-09-18T21:15:43.328Z,64.02
2018-09-18T21:18:12.714Z,64.01
2018-09-18T21:20:43.289Z,63.53
2018-09-18T21:23:13.530Z,63.59
2018-09-18T21:26:17.109Z,63.61
2018-09-18T21:28:46.376Z,63.72
2018-09-18T21:31:16.575Z,64.20
2018-09-18T21:33:45.869Z,63.99
2018-09-18T21:36:15.233Z,64.23
2018-09-18T21:38:45.519Z,64.55
2018-09-18T21:43:50.345Z,65.21
2018-09-18T21:46:19.819Z,65.69
2018-09-18T21:48:49.136Z,65.53
2018-09-18T21:51:19.120Z,65.43
2018-09-18T21:53:49.278Z,66.24
2018-09-18T21:56:19.454Z,66.27
2018-09-18T21:58:49.426Z,66.63
2018-09-18T22:01:23.815Z,66.30
2018-09-18T22:03:54.097Z,66.94
2018-09-18T22:06:24.404Z,67.17
2018-09-18T22:08:53.775Z,66.95
2018-09-18T22:11:23.740Z,66.45
2018-09-18T22:13:52.991Z,66.42
2018-09-18T22:16:23.381Z,66.04
2018-09-18T22:18:53.694Z,66.40
2018-09-18T22:21:22.840Z,67.08
2018-09-18T22:23:52.304Z,67.28
2018-09-18T22:26:21.516Z,67.33
2018-09-18T22:28:50.914Z,67.87
2018-09-18T22:31:20.018Z,67.58
2018-09-18T22:33:49.279Z,67.91
2018-09-18T22:36:18.570Z,68.19
2018-09-18T22:38:48.114Z,68.28
2018-09-18T22:41:17.305Z,68.35
2018-09-18T22:43:47.725Z,68.03
2018-09-18T22:46:17.241Z,68.36
2018-09-18T22:48:48.417Z,68.69
2018-09-18T22:51:17.801Z,68.39
2018-09-18T22:53:47.872Z,68.61
2018-09-18T22:56:17.829Z,68.71
2018-09-18T22:58:47.847Z,68.64
2018-09-18T23:01:17.714Z,68.68
2018-09-18T23:03:48.715Z,68.53
2018-09-18T23:06:19.001Z,68.60
2018-09-18T23:08:48.494Z,67.94
2018-09-18T23:11:19.186Z,68.02
2018-09-18T23:13:49.537Z,67.50
2018-09-18T23:16:20.252Z,67.01
2018-09-18T23:18:50.700Z,67.79
2018-09-18T23:21:20.528Z,67.66
2018-09-18T23:23:49.902Z,68.24
2018-09-18T23:26:20.512Z,67.91
2018-09-18T23:28:49.791Z,67.46
2018-09-18T23:31:19.879Z,67.27
2018-09-18T23:33:49.638Z,67.01
2018-09-18T23:36:20.325Z,67.24
2018-09-18T23:38:49.465Z,68.09
2018-09-18T23:41:20.337Z,67.25
2018-09-18T23:43:49.518Z,68.38
2018-09-18T23:46:19.944Z,68.64
2018-09-18T23:48:50.689Z,68.41
2018-09-18T23:51:20.109Z,68.68
2018-09-18T23:53:49.753Z,68.83
2018-09-18T23:56:24.033Z,69.41
2018-09-18T23:58:53.482Z,69.10
